^^
Historische Daten
 
Tag Summe für Juli 23, 2017 Einheit:  Metric    English   Beide
« vorheriger Tag
nächster Tag »
Tag Woche Monat Jahr Benutzerdefiniert
  Aktuell: Max: Min: Durchschnitt:
Temperatur: 11.9 °C 19.8 °C 11.9 °C 16.4 °C
Tau Punkt: 8.6 °C 15.2 °C 8.6 °C 12.6 °C
Luftfeuchte: 80% 94% 56% 79%
Windgeschwindigkeit: 5.6km/h 35.2km/h 0.0km/h 12.6km/h
Wind Böen: 5.6km/h 35.2km/h - -
WindWNW - - SW
Luftdruck: 1014.1 hPa 1014.1 hPa 1011.4 hPa -
Niederschlag: 3.0 mm      
Historical Graphs
 
 
Tabellendaten für Juli 23, 2017
Zeit Temperatur Tau Punkt Luftdruck Wind Windgeschwindigkeit Wind Böen Luftfeuchte Regen Rate (Stunde) Conditions
00:02 16.1 °C 13.6 °C 1012.8 hPa WSW 3.7 km/h 3.7 km/h 85% 0.0 mm CLR
00:07 16.0 °C 13.5 °C 1012.8 hPa Calm     85% 0.0 mm CLR
00:12 15.9 °C 13.4 °C 1012.8 hPa WSW 3.7 km/h 3.7 km/h 85% 0.0 mm CLR
00:17 15.9 °C 13.4 °C 1012.8 hPa WSW 3.7 km/h 3.7 km/h 85% 0.0 mm CLR
00:22 15.9 °C 13.4 °C 1012.8 hPa Calm     85% 0.0 mm CLR
00:27 15.9 °C 13.4 °C 1012.8 hPa WSW 1.9 km/h 1.9 km/h 85% 0.0 mm CLR
00:32 15.9 °C 13.4 °C 1012.8 hPa WSW 1.9 km/h 1.9 km/h 85% 0.0 mm CLR
00:37 16.0 °C 13.3 °C 1012.8 hPa Calm     84% 0.0 mm CLR
00:42 16.1 °C 13.3 °C 1012.8 hPa Calm     84% 0.0 mm CLR
00:47 15.9 °C 13.2 °C 1012.4 hPa Calm     84% 0.0 mm CLR
00:52 15.9 °C 13.2 °C 1012.4 hPa WSW 1.9 km/h 1.9 km/h 84% 0.0 mm CLR
00:57 15.9 °C 13.2 °C 1012.4 hPa Calm     84% 0.0 mm CLR
01:02 16.0 °C 13.1 °C 1012.4 hPa WSW 1.9 km/h   83% 0.0 mm CLR
01:07 16.1 °C 13.2 °C 1012.4 hPa Calm     83% 0.0 mm CLR
01:12 16.3 °C 13.2 °C 1012.4 hPa WSW 1.9 km/h 1.9 km/h 82% 0.0 mm CLR
01:17 16.3 °C 13.2 °C 1012.1 hPa Calm   0.2 km/h 82% 0.0 mm CLR
01:22 16.4 °C 13.1 °C 1012.1 hPa WSW 1.9 km/h   81% 0.0 mm CLR
01:27 16.3 °C 13.0 °C 1012.1 hPa Calm     81% 0.0 mm CLR
01:32 16.1 °C 13.0 °C 1012.1 hPa Calm     82% 0.0 mm CLR
01:37 15.9 °C 12.9 °C 1012.1 hPa WSW 3.7 km/h 3.7 km/h 82% 0.0 mm CLR
01:42 15.8 °C 12.9 °C 1012.4 hPa WSW 5.6 km/h 5.6 km/h 83% 0.0 mm CLR
01:47 15.6 °C 12.7 °C 1012.4 hPa WSW 5.6 km/h 5.6 km/h 83% 0.0 mm CLR
01:52 15.6 °C 12.9 °C 1012.1 hPa WSW 5.6 km/h 5.6 km/h 84% 0.0 mm CLR
01:57 15.6 °C 12.9 °C 1012.4 hPa WSW 3.7 km/h 3.7 km/h 84% 0.0 mm CLR
02:02 15.7 °C 12.9 °C 1012.4 hPa SW 3.7 km/h 3.7 km/h 84% 0.0 mm CLR
02:07 15.7 °C 12.8 °C 1012.4 hPa SW 1.9 km/h 1.9 km/h 83% 0.0 mm CLR
02:12 15.8 °C 12.9 °C 1012.1 hPa SW 3.7 km/h 3.7 km/h 83% 0.0 mm CLR
02:17 15.8 °C 12.9 °C 1012.1 hPa SW 1.9 km/h 1.9 km/h 83% 0.0 mm CLR
02:22 15.7 °C 12.8 °C 1012.1 hPa SW 3.7 km/h 3.7 km/h 83% 0.0 mm CLR
02:27 15.8 °C 12.9 °C 1012.1 hPa SW 1.9 km/h 1.9 km/h 83% 0.0 mm CLR
02:32 15.8 °C 12.9 °C 1012.1 hPa Calm     83% 0.0 mm CLR
02:33 15.8 °C 12.9 °C 1012.1 hPa Calm     83% 0.0 mm CLR
02:38 15.8 °C 12.9 °C 1012.1 hPa Calm     83% 0.0 mm CLR
02:43 15.7 °C 12.8 °C 1011.7 hPa Calm     83% 0.0 mm CLR
02:48 15.7 °C 12.8 °C 1011.7 hPa Calm     83% 0.0 mm CLR
02:53 15.8 °C 13.1 °C 1011.7 hPa SW 3.7 km/h   84% 0.0 mm CLR
02:58 15.9 °C 13.0 °C 1011.7 hPa Calm     83% 0.0 mm CLR
03:03 15.9 °C 13.0 °C 1011.7 hPa SW 1.9 km/h 1.9 km/h 83% 0.0 mm CLR
03:08 15.8 °C 12.9 °C 1011.4 hPa SW 3.7 km/h 3.7 km/h 83% 0.0 mm CLR
03:13 15.6 °C 12.9 °C 1011.4 hPa SW 3.7 km/h 3.7 km/h 84% 0.0 mm CLR
03:18 15.5 °C 13.0 °C 1011.7 hPa SW 8.8 km/h 8.8 km/h 85% 0.0 mm CLR
03:23 15.7 °C 13.3 °C 1011.7 hPa WSW 9.3 km/h 9.3 km/h 86% 0.0 mm CLR
03:28 15.8 °C 13.5 °C 1011.7 hPa SW 7.4 km/h 7.4 km/h 86% 0.0 mm CLR
03:33 15.9 °C 13.4 °C 1011.7 hPa SW 11.1 km/h 11.1 km/h 85% 0.0 mm CLR
03:38 16.1 °C 13.6 °C 1011.7 hPa SSW 7.4 km/h 7.4 km/h 85% 0.0 mm CLR
03:43 16.2 °C 13.7 °C 1011.7 hPa SSW 11.1 km/h 11.1 km/h 85% 0.0 mm CLR
03:48 16.2 °C 13.7 °C 1011.7 hPa South 13.0 km/h 13.0 km/h 85% 0.0 mm CLR
03:53 16.2 °C 13.7 °C 1011.7 hPa SW 11.1 km/h 11.1 km/h 85% 0.0 mm CLR
03:58 16.3 °C 13.8 °C 1011.7 hPa WSW 11.1 km/h 11.1 km/h 85% 0.0 mm CLR
04:03 16.3 °C 13.8 °C 1011.7 hPa South 9.3 km/h 9.3 km/h 85% 0.0 mm CLR
04:08 16.5 °C 13.9 °C 1011.7 hPa SSW 9.3 km/h 9.3 km/h 85% 0.0 mm CLR
04:13 16.5 °C 13.9 °C 1011.7 hPa South 11.1 km/h 11.1 km/h 85% 0.0 mm CLR
04:18 16.6 °C 14.0 °C 1011.7 hPa SW 12.4 km/h 12.4 km/h 85% 0.0 mm CLR
04:23 16.6 °C 14.0 °C 1011.7 hPa SW 13.0 km/h 13.0 km/h 85% 0.0 mm CLR
04:28 16.6 °C 14.0 °C 1011.7 hPa SW 9.3 km/h 9.3 km/h 85% 0.0 mm CLR
04:31 16.6 °C 14.0 °C 1011.7 hPa SW 14.8 km/h 14.8 km/h 85% 0.0 mm CLR
04:36 16.7 °C 14.1 °C 1011.7 hPa SW 9.3 km/h 9.3 km/h 85% 0.0 mm CLR
04:41 16.7 °C 14.2 °C 1011.7 hPa WSW 14.8 km/h 14.8 km/h 85% 0.0 mm CLR
04:46 16.8 °C 14.3 °C 1011.7 hPa SW 18.5 km/h 18.5 km/h 85% 0.0 mm CLR
04:51 16.9 °C 14.2 °C 1011.7 hPa SW 11.1 km/h 11.1 km/h 84% 0.0 mm CLR
04:56 16.9 °C 14.2 °C 1011.7 hPa WSW 11.1 km/h 11.1 km/h 84% 0.0 mm CLR
05:01 16.9 °C 14.1 °C 1011.7 hPa SSW 14.8 km/h 14.8 km/h 83% 0.0 mm CLR
05:02 16.9 °C 14.0 °C 1011.7 hPa SW 11.1 km/h 11.1 km/h 83% 0.0 mm CLR
05:07 16.9 °C 14.1 °C 1011.7 hPa SW 18.5 km/h 18.5 km/h 83% 0.0 mm CLR
05:12 16.9 °C 13.8 °C 1011.4 hPa SW 16.7 km/h 16.7 km/h 82% 0.0 mm OVC
05:17 16.9 °C 13.8 °C 1011.7 hPa WSW 16.7 km/h 16.7 km/h 82% 0.0 mm OVC
05:22 17.0 °C 13.9 °C 1011.7 hPa SW 15.9 km/h 15.9 km/h 82% 0.0 mm OVC
05:27 17.1 °C 13.8 °C 1011.7 hPa SSW 20.4 km/h 20.4 km/h 81% 0.0 mm CLR
05:32 17.2 °C 13.7 °C 1011.7 hPa SW 11.1 km/h 11.1 km/h 80% 0.0 mm CLR
05:37 17.3 °C 13.8 °C 1011.7 hPa WSW 18.5 km/h 18.5 km/h 80% 0.0 mm CLR
05:42 17.3 °C 13.6 °C 1011.7 hPa SW 21.2 km/h 21.2 km/h 79% 0.0 mm CLR
05:47 17.3 °C 13.4 °C 1011.7 hPa SW 17.7 km/h 17.7 km/h 78% 0.0 mm BKN
05:52 17.3 °C 13.4 °C 1011.7 hPa WSW 22.2 km/h 22.2 km/h 78% 0.0 mm BKN
05:57 17.3 °C 13.4 °C 1012.1 hPa SSW 20.4 km/h 20.4 km/h 78% 0.0 mm OVC
06:02 17.3 °C 13.4 °C 1012.1 hPa SW 16.7 km/h 16.7 km/h 78% 0.0 mm OVC
06:07 17.2 °C 13.3 °C 1012.1 hPa SW 20.4 km/h 20.4 km/h 78% 0.0 mm OVC
06:12 17.2 °C 13.3 °C 1012.1 hPa WSW 25.9 km/h 25.9 km/h 78% 0.0 mm OVC
06:17 17.1 °C 13.4 °C 1012.1 hPa SSW 23.0 km/h 23.0 km/h 79% 0.0 mm OVC
06:22 17.1 °C 13.6 °C 1012.1 hPa WSW 33.3 km/h 33.3 km/h 80% 0.0 mm
06:27 16.9 °C 13.6 °C 1012.1 hPa South 22.2 km/h 22.2 km/h 81% 0.0 mm
06:32 16.7 °C 13.6 °C 1012.1 hPa SW 18.5 km/h 18.5 km/h 82% 0.0 mm OVC
06:37 16.5 °C 13.6 °C 1012.1 hPa WNW 20.4 km/h 20.4 km/h 83% 0.0 mm
06:42 16.4 °C 13.7 °C 1012.4 hPa SW 27.8 km/h 27.8 km/h 84% 0.0 mm OVC
06:47 16.3 °C 13.6 °C 1012.4 hPa WNW 20.4 km/h 20.4 km/h 84% 0.0 mm
06:52 16.3 °C 13.6 °C 1012.4 hPa WSW 23.0 km/h 23.0 km/h 84% 0.0 mm OVC
06:57 16.2 °C 13.7 °C 1012.4 hPa SW 20.4 km/h 20.4 km/h 85% 0.0 mm OVC
07:02 16.1 °C 13.6 °C 1012.4 hPa WSW 14.8 km/h 14.8 km/h 85% 0.0 mm OVC
07:07 16.1 °C 13.6 °C 1012.4 hPa SW 18.5 km/h 18.5 km/h 85% 0.0 mm OVC
07:12 16.0 °C 13.7 °C 1012.4 hPa WSW 16.7 km/h 16.7 km/h 86% 0.0 mm -RA
07:17 15.9 °C 13.6 °C 1012.4 hPa SW 18.5 km/h 18.5 km/h 86% 0.0 mm -RA
07:22 15.9 °C 13.6 °C 1012.4 hPa WSW 25.9 km/h 25.9 km/h 86% 0.0 mm -RA
07:27 15.9 °C 13.7 °C 1012.4 hPa SW 11.1 km/h 11.1 km/h 87% 0.0 mm -RA
07:32 15.9 °C 13.7 °C 1012.8 hPa WSW 18.5 km/h 18.5 km/h 87% 0.0 mm -RA
07:37 15.9 °C 13.8 °C 1012.8 hPa WSW 12.4 km/h 12.4 km/h 87% 0.0 mm -RA
07:42 16.0 °C 13.8 °C 1012.8 hPa SW 16.7 km/h 16.7 km/h 87% 0.0 mm -RA
07:47 16.0 °C 13.8 °C 1012.8 hPa WSW 12.4 km/h 12.4 km/h 87% 0.0 mm -RA
07:52 16.1 °C 13.9 °C 1012.8 hPa SW 11.1 km/h 11.1 km/h 87% 0.0 mm -RA
07:57 16.1 °C 13.9 °C 1012.8 hPa SW 18.5 km/h 18.5 km/h 87% 0.0 mm -RA
08:02 16.1 °C 13.9 °C 1012.8 hPa South 16.7 km/h 16.7 km/h 87% 0.0 mm -RA
08:07 16.1 °C 13.9 °C 1012.8 hPa SW 10.6 km/h 10.6 km/h 87% 0.0 mm -RA
08:08 16.1 °C 13.9 °C 1013.1 hPa SW 18.5 km/h 18.5 km/h 87% 0.0 mm -RA
08:13 16.0 °C 13.8 °C 1013.1 hPa SSW 3.7 km/h 3.7 km/h 87% 0.0 mm -RA
08:18 15.9 °C 13.9 °C 1013.1 hPa SW 14.8 km/h 14.8 km/h 88% 0.0 mm -RA
08:23 15.8 °C 13.9 °C 1013.1 hPa SW 11.1 km/h 11.1 km/h 89% 0.0 mm -RA
08:28 15.7 °C 13.8 °C 1013.1 hPa SW 9.3 km/h 9.3 km/h 89% 0.0 mm -RA
08:33 15.5 °C 13.9 °C 1013.1 hPa SW 11.1 km/h 11.1 km/h 90% 0.0 mm -RA
08:38 15.4 °C 13.8 °C 1013.1 hPa SW 11.1 km/h 11.1 km/h 90% 0.3 mm -RA
08:43 15.3 °C 13.8 °C 1013.1 hPa WSW 14.8 km/h 14.8 km/h 91% 0.3 mm -RA
08:48 15.3 °C 14.0 °C 1013.1 hPa WSW 13.0 km/h 13.0 km/h 92% 0.3 mm -RA
08:53 15.2 °C 13.9 °C 1013.1 hPa South 9.3 km/h 9.3 km/h 92% 0.3 mm -RA
08:58 15.2 °C 13.9 °C 1013.1 hPa SW 11.1 km/h 11.1 km/h 92% 0.3 mm -RA
09:03 15.2 °C 14.1 °C 1013.1 hPa SSW 7.4 km/h 7.4 km/h 93% 0.3 mm -RA
09:08 15.2 °C 14.1 °C 1013.1 hPa WSW 5.6 km/h 5.6 km/h 93% 0.3 mm -RA
09:13 15.1 °C 14.0 °C 1013.1 hPa SSW 11.1 km/h 11.1 km/h 93% 0.3 mm -RA
09:18 15.1 °C 14.0 °C 1013.1 hPa SSW 9.3 km/h 9.3 km/h 93% 0.3 mm -RA
09:23 15.1 °C 14.0 °C 1013.1 hPa WSW 9.3 km/h 9.3 km/h 93% 0.3 mm -RA
09:28 15.1 °C 14.0 °C 1013.1 hPa South 11.1 km/h 11.1 km/h 93% 0.3 mm -RA
09:33 15.1 °C 13.9 °C 1013.1 hPa SW 9.3 km/h 9.3 km/h 93% 0.3 mm -RA
09:38 15.1 °C 13.9 °C 1013.1 hPa SSW 13.0 km/h 13.0 km/h 93% 0.0 mm -RA
09:43 15.2 °C 14.2 °C 1013.1 hPa SW 7.4 km/h 7.4 km/h 94% 0.0 mm FEW
09:48 15.2 °C 14.3 °C 1013.1 hPa WSW 7.4 km/h 7.4 km/h 94% 0.0 mm FEW
09:53 15.3 °C 14.4 °C 1013.1 hPa SSE 22.2 km/h 22.2 km/h 94% 0.0 mm -RA
09:58 15.4 °C 14.3 °C 1013.1 hPa WSW 13.0 km/h 13.0 km/h 93% 0.0 mm -RA
10:03 15.4 °C 14.3 °C 1013.1 hPa SW 14.8 km/h 14.8 km/h 93% 0.0 mm -RA
10:08 15.3 °C 14.2 °C 1013.1 hPa South 11.1 km/h 11.1 km/h 93% 0.3 mm -RA
10:13 15.4 °C 14.4 °C 1013.1 hPa WSW 16.7 km/h 16.7 km/h 94% 0.3 mm RA
10:18 15.5 °C 14.6 °C 1013.1 hPa SSW 11.1 km/h 11.1 km/h 94% 0.3 mm SCT
10:23 15.6 °C 14.6 °C 1013.1 hPa WSW 9.3 km/h 9.3 km/h 94% 0.3 mm SCT
10:28 15.7 °C 14.7 °C 1013.1 hPa South 12.4 km/h 12.4 km/h 94% 0.5 mm RA
10:33 15.9 °C 15.0 °C 1013.1 hPa SW 12.4 km/h 12.4 km/h 94% 0.5 mm RA
10:38 16.1 °C 15.1 °C 1013.1 hPa SW 18.5 km/h 18.5 km/h 94% 0.5 mm SCT
10:43 16.3 °C 15.2 °C 1013.1 hPa South 18.5 km/h 18.5 km/h 93% 0.5 mm SCT
10:48 16.3 °C 15.0 °C 1013.1 hPa SSW 20.4 km/h 20.4 km/h 92% 0.5 mm SCT
10:53 15.9 °C 14.7 °C 1013.8 hPa West 19.5 km/h 19.5 km/h 92% 0.5 mm SCT
10:58 15.1 °C 13.6 °C 1013.8 hPa WNW 21.2 km/h 21.2 km/h 91% 2.0 mm RA
11:03 14.5 °C 13.2 °C 1013.8 hPa SSW 29.6 km/h 29.6 km/h 92% 2.3 mm RA
11:08 14.2 °C 12.9 °C 1013.8 hPa SW 14.8 km/h 14.8 km/h 92% 2.0 mm RA
11:13 14.2 °C 13.1 °C 1013.8 hPa WSW 5.6 km/h 5.6 km/h 93% 2.3 mm RA
11:18 14.3 °C 13.2 °C 1013.8 hPa NW 20.4 km/h 20.4 km/h 93% 2.3 mm RA
11:23 14.2 °C 13.1 °C 1013.8 hPa SW 12.4 km/h 12.4 km/h 93% 2.3 mm BKN
11:28 14.1 °C 13.2 °C 1013.8 hPa WSW 9.3 km/h 9.3 km/h 94% 2.3 mm RA
11:33 14.1 °C 13.2 °C 1013.8 hPa WSW 7.4 km/h 7.4 km/h 94% 2.3 mm RA
11:38 14.3 °C 13.3 °C 1013.8 hPa SW 9.3 km/h 9.3 km/h 94% 2.3 mm RA
11:43 14.4 °C 13.4 °C 1013.8 hPa WSW 16.7 km/h 16.7 km/h 94% 2.3 mm RA
11:48 14.4 °C 13.3 °C 1013.8 hPa SSW 13.0 km/h 13.0 km/h 93% 2.3 mm BKN
11:53 14.5 °C 13.4 °C 1013.8 hPa SW 11.1 km/h 11.1 km/h 93% 2.3 mm BKN
11:58 15.2 °C 14.1 °C 1013.8 hPa SW 9.3 km/h 9.3 km/h 93% 0.8 mm BKN
12:03 15.3 °C 13.8 °C 1013.8 hPa West 9.3 km/h 9.3 km/h 91% 0.5 mm BKN
12:08 15.3 °C 13.8 °C 1013.8 hPa SW 20.4 km/h 20.4 km/h 91% 0.5 mm BKN
12:13 15.3 °C 13.9 °C 1014.1 hPa SW 13.0 km/h 13.0 km/h 91% 0.5 mm BKN
12:18 15.6 °C 14.1 °C 1014.1 hPa SW 15.9 km/h 15.9 km/h 91% 0.5 mm BKN
12:23 15.9 °C 14.4 °C 1014.1 hPa WSW 7.1 km/h 7.1 km/h 91% 0.5 mm SCT
12:28 15.8 °C 13.6 °C 1013.8 hPa SW 22.2 km/h 22.2 km/h 87% 0.3 mm SCT
12:33 15.8 °C 13.6 °C 1013.8 hPa SW 13.0 km/h 13.0 km/h 87% 0.3 mm SCT
12:38 15.6 °C 13.1 °C 1013.8 hPa WSW 16.7 km/h 16.7 km/h 85% 0.0 mm SCT
12:43 15.7 °C 13.2 °C 1014.1 hPa SSW 14.8 km/h 14.8 km/h 85% 0.0 mm SCT
12:48 15.6 °C 13.1 °C 1014.1 hPa West 14.8 km/h 14.8 km/h 85% 0.0 mm SCT
12:53 15.9 °C 13.6 °C 1014.1 hPa SW 9.3 km/h 9.3 km/h 86% 0.0 mm SCT
12:58 16.3 °C 13.9 °C 1014.1 hPa West 11.1 km/h 11.1 km/h 86% 0.0 mm SCT
13:03 16.4 °C 13.7 °C 1013.8 hPa WSW 16.7 km/h 16.7 km/h 84% 0.0 mm SCT
13:08 16.6 °C 13.8 °C 1013.8 hPa SW 20.4 km/h 20.4 km/h 84% 0.0 mm SCT
13:13 16.6 °C 13.9 °C 1014.1 hPa WSW 14.8 km/h 14.8 km/h 84% 0.0 mm FEW
13:18 16.7 °C 13.8 °C 1014.1 hPa SW 20.4 km/h 20.4 km/h 83% 0.0 mm FEW
13:19 16.6 °C 13.7 °C 1014.1 hPa SW 18.5 km/h 18.5 km/h 83% 0.0 mm FEW
13:24 16.7 °C 14.2 °C 1013.8 hPa WSW 13.0 km/h 13.0 km/h 85% 0.0 mm FEW
13:29 17.2 °C 14.4 °C 1013.8 hPa SSW 11.1 km/h 11.1 km/h 84% 0.0 mm FEW
13:34 18.0 °C 15.1 °C 1013.8 hPa SSW 16.7 km/h 16.7 km/h 83% 0.0 mm FEW
13:39 17.7 °C 14.4 °C 1013.8 hPa West 18.5 km/h 18.5 km/h 81% 0.0 mm FEW
13:44 17.8 °C 14.5 °C 1013.8 hPa WSW 7.4 km/h 7.4 km/h 81% 0.0 mm FEW
13:49 18.2 °C 14.8 °C 1013.4 hPa SW 22.2 km/h 22.2 km/h 81% 0.0 mm FEW
13:54 18.1 °C 14.2 °C 1013.4 hPa WSW 27.8 km/h 27.8 km/h 78% 0.0 mm FEW
13:59 18.2 °C 14.7 °C 1013.4 hPa SW 13.0 km/h 13.0 km/h 80% 0.0 mm FEW
14:04 18.2 °C 14.7 °C 1013.4 hPa WSW 20.4 km/h 20.4 km/h 80% 0.0 mm FEW
14:09 18.5 °C 14.4 °C 1013.4 hPa SW 24.1 km/h 24.1 km/h 77% 0.0 mm FEW
14:14 18.7 °C 14.8 °C 1013.4 hPa SSW 20.4 km/h 20.4 km/h 78% 0.0 mm FEW
14:19 18.9 °C 14.9 °C 1013.4 hPa SW 14.8 km/h 14.8 km/h 78% 0.0 mm FEW
14:24 18.4 °C 14.7 °C 1013.4 hPa South 12.4 km/h 12.4 km/h 79% 0.0 mm FEW
14:29 18.6 °C 14.5 °C 1013.4 hPa WSW 18.5 km/h 18.5 km/h 77% 0.0 mm FEW
14:34 18.9 °C 14.2 °C 1013.4 hPa SW 25.9 km/h 25.9 km/h 74% 0.0 mm FEW
14:39 19.1 °C 14.6 °C 1013.4 hPa SW 24.1 km/h 24.1 km/h 75% 0.0 mm FEW
14:44 19.4 °C 14.4 °C 1013.4 hPa SW 24.1 km/h 24.1 km/h 73% 0.0 mm SCT
14:49 19.6 °C 14.6 °C 1013.4 hPa WNW 27.8 km/h 27.8 km/h 73% 0.0 mm SCT
14:54 19.6 °C 14.6 °C 1013.1 hPa WSW 20.4 km/h 20.4 km/h 73% 0.0 mm SCT
14:59 19.8 °C 13.7 °C 1013.1 hPa SSW 29.6 km/h 29.6 km/h 68% 0.0 mm SCT
15:04 19.6 °C 14.2 °C 1013.4 hPa SSW 25.9 km/h 25.9 km/h 71% 0.0 mm SCT
15:09 19.6 °C 13.7 °C 1013.4 hPa SW 29.6 km/h 29.6 km/h 69% 0.0 mm SCT
15:14 19.2 °C 13.8 °C 1013.4 hPa SW 22.2 km/h 22.2 km/h 71% 0.0 mm SCT
15:19 18.8 °C 13.2 °C 1013.4 hPa SW 23.0 km/h 23.0 km/h 70% 0.0 mm SCT
15:24 19.1 °C 14.3 °C 1013.4 hPa SW 22.2 km/h 22.2 km/h 74% 0.0 mm SCT
15:29 19.6 °C 13.5 °C 1013.4 hPa WSW 29.6 km/h 29.6 km/h 68% 0.0 mm SCT
15:34 19.6 °C 13.1 °C 1013.4 hPa WSW 35.2 km/h 35.2 km/h 66% 0.0 mm SCT
15:39 19.8 °C 13.5 °C 1013.4 hPa WSW 29.6 km/h 29.6 km/h 67% 0.0 mm SCT
15:44 19.6 °C 12.8 °C 1013.4 hPa SW 25.9 km/h 25.9 km/h 65% 0.0 mm SCT
15:50 19.3 °C 12.8 °C 1013.4 hPa SSW 33.3 km/h 33.3 km/h 66% 0.0 mm SCT
15:55 19.1 °C 12.3 °C 1013.4 hPa West 27.8 km/h 27.8 km/h 65% 0.0 mm SCT
15:59 18.8 °C 13.0 °C 1013.4 hPa WSW 11.1 km/h 11.1 km/h 69% 0.0 mm SCT
16:00 18.9 °C 13.1 °C 1013.4 hPa South 7.4 km/h 7.4 km/h 69% 0.0 mm SCT
16:05 19.6 °C 13.9 °C 1013.4 hPa SSW 20.4 km/h 20.4 km/h 70% 0.0 mm SCT
16:10 19.4 °C 13.8 °C 1013.4 hPa West 15.9 km/h 15.9 km/h 70% 0.0 mm SCT
16:15 19.3 °C 13.3 °C 1013.1 hPa WSW 19.5 km/h 19.5 km/h 68% 0.0 mm SCT
16:20 19.2 °C 12.9 °C 1013.1 hPa SW 33.3 km/h 33.3 km/h 67% 0.0 mm SCT
16:25 19.3 °C 11.6 °C 1013.1 hPa North 24.1 km/h 24.1 km/h 61% 0.0 mm SCT
16:30 19.7 °C 11.2 °C 1013.1 hPa WSW 22.2 km/h 22.2 km/h 58% 0.0 mm SCT
16:35 19.4 °C 11.2 °C 1013.1 hPa WSW 20.4 km/h 20.4 km/h 59% 0.0 mm SCT
16:40 19.2 °C 10.9 °C 1013.1 hPa WSW 16.7 km/h 16.7 km/h 59% 0.0 mm SCT
16:45 18.9 °C 10.8 °C 1013.1 hPa SSW 25.9 km/h 25.9 km/h 59% 0.0 mm SCT
16:50 18.7 °C 10.7 °C 1013.1 hPa WSW 20.4 km/h 20.4 km/h 60% 0.0 mm SCT
16:55 18.7 °C 11.2 °C 1013.1 hPa SW 18.5 km/h 18.5 km/h 62% 0.0 mm SCT
17:00 18.8 °C 11.1 °C 1013.1 hPa WSW 17.7 km/h 17.7 km/h 61% 0.0 mm SCT
17:05 18.6 °C 11.4 °C 1013.1 hPa SSW 8.8 km/h 8.8 km/h 63% 0.0 mm SCT
17:10 18.8 °C 12.1 °C 1013.1 hPa WSW 12.4 km/h 12.4 km/h 65% 0.0 mm SCT
17:15 19.1 °C 11.2 °C 1013.1 hPa West 22.2 km/h 22.2 km/h 60% 0.0 mm SCT
17:20 19.3 °C 11.4 °C 1013.1 hPa WSW 13.0 km/h 13.0 km/h 60% 0.0 mm SCT
17:25 19.4 °C 11.2 °C 1013.1 hPa WSW 20.4 km/h 20.4 km/h 59% 0.0 mm SCT
17:30 19.5 °C 10.8 °C 1013.1 hPa West 20.4 km/h 20.4 km/h 57% 0.0 mm SCT
17:35 19.4 °C 10.4 °C 1013.1 hPa SW 25.9 km/h 25.9 km/h 56% 0.0 mm SCT
17:40 19.3 °C 10.6 °C 1013.1 hPa SSW 19.5 km/h 19.5 km/h 57% 0.0 mm SCT
17:45 19.0 °C 10.6 °C 1013.1 hPa South 20.4 km/h 20.4 km/h 58% 0.0 mm CLR
17:50 18.9 °C 10.8 °C 1013.1 hPa West 14.2 km/h 14.2 km/h 59% 0.0 mm CLR
17:55 18.7 °C 10.8 °C 1013.1 hPa WNW 14.8 km/h 14.8 km/h 60% 0.0 mm CLR
18:00 18.3 °C 10.6 °C 1013.1 hPa West 14.8 km/h 14.8 km/h 61% 0.0 mm SCT
18:05 18.0 °C 10.6 °C 1013.1 hPa SW 5.6 km/h 5.6 km/h 62% 0.0 mm OVC
18:10 18.0 °C 11.1 °C 1013.1 hPa WSW 3.7 km/h 3.7 km/h 64% 0.0 mm BKN
18:15 17.9 °C 10.6 °C 1013.1 hPa West 7.4 km/h 7.4 km/h 62% 0.0 mm BKN
18:20 17.9 °C 11.1 °C 1013.1 hPa SW 8.8 km/h 8.8 km/h 64% 0.0 mm BKN
18:25 17.9 °C 11.1 °C 1013.1 hPa WSW 7.4 km/h 7.4 km/h 64% 0.0 mm BKN
18:30 17.8 °C 10.9 °C 1013.1 hPa SW 16.7 km/h 16.7 km/h 64% 0.0 mm OVC
18:35 17.6 °C 10.7 °C 1013.1 hPa West 7.4 km/h 7.4 km/h 64% 0.0 mm OVC
18:40 17.3 °C 10.7 °C 1013.1 hPa SW 14.8 km/h 14.8 km/h 65% 0.0 mm OVC
18:45 17.1 °C 10.7 °C 1013.1 hPa WSW 9.3 km/h 9.3 km/h 66% 0.0 mm OVC
18:50 17.1 °C 10.7 °C 1013.1 hPa WSW 9.3 km/h 9.3 km/h 66% 0.0 mm OVC
18:55 17.1 °C 10.7 °C 1013.1 hPa WNW 9.3 km/h 9.3 km/h 66% 0.0 mm BKN
19:00 17.0 °C 10.8 °C 1013.1 hPa WSW 14.8 km/h 14.8 km/h 67% 0.0 mm BKN
19:06 17.1 °C 10.9 °C 1013.1 hPa SW 5.3 km/h 5.3 km/h 67% 0.0 mm BKN
19:11 17.2 °C 10.8 °C 1013.1 hPa SW 11.1 km/h 11.1 km/h 66% 0.0 mm BKN
19:16 17.2 °C 10.3 °C 1013.1 hPa WSW 14.8 km/h 14.8 km/h 64% 0.0 mm BKN
19:21 17.1 °C 10.2 °C 1013.4 hPa WSW 9.3 km/h 9.3 km/h 64% 0.0 mm BKN
19:26 17.1 °C 9.9 °C 1013.4 hPa NNW 10.6 km/h 11.9 km/h 63% 0.0 mm BKN
19:31 17.1 °C 9.7 °C 1013.4 hPa WSW 14.8 km/h 14.8 km/h 62% 0.0 mm BKN
19:36 16.9 °C 9.6 °C 1013.4 hPa SW 5.6 km/h 5.6 km/h 62% 0.0 mm BKN
19:41 16.8 °C 9.7 °C 1013.4 hPa West 9.3 km/h 9.3 km/h 63% 0.0 mm BKN
19:46 16.7 °C 10.1 °C 1013.4 hPa West 15.9 km/h 15.9 km/h 65% 0.0 mm BKN
19:51 16.6 °C 9.7 °C 1013.4 hPa WSW 13.0 km/h 13.0 km/h 64% 0.0 mm BKN
19:56 16.4 °C 9.8 °C 1013.4 hPa WSW 11.1 km/h 11.1 km/h 65% 0.0 mm BKN
20:01 16.2 °C 9.8 °C 1013.4 hPa WSW 9.3 km/h 9.3 km/h 66% 0.0 mm BKN
20:06 16.0 °C 9.7 °C 1013.4 hPa WSW 8.8 km/h 8.8 km/h 66% 0.0 mm BKN
20:11 15.8 °C 9.4 °C 1013.4 hPa SSW 9.3 km/h 9.3 km/h 66% 0.0 mm BKN
20:16 15.6 °C 9.5 °C 1013.4 hPa SW 9.3 km/h 9.3 km/h 67% 0.0 mm BKN
20:21 15.4 °C 9.3 °C 1013.8 hPa WSW 11.1 km/h 11.1 km/h 67% 0.0 mm BKN
20:26 15.4 °C 9.3 °C 1013.8 hPa SW 9.3 km/h 9.3 km/h 67% 0.0 mm FEW
20:31 15.3 °C 9.2 °C 1013.8 hPa SW 14.8 km/h 14.8 km/h 67% 0.0 mm FEW
20:36 15.2 °C 9.1 °C 1013.8 hPa WSW 9.3 km/h 9.3 km/h 67% 0.0 mm FEW
20:41 15.2 °C 9.3 °C 1013.8 hPa WSW 11.1 km/h 11.1 km/h 68% 0.0 mm FEW
20:46 15.1 °C 9.2 °C 1013.8 hPa WSW 5.6 km/h 5.6 km/h 68% 0.0 mm CLR
20:51 14.9 °C 9.2 °C 1013.8 hPa SW 10.6 km/h 10.6 km/h 69% 0.0 mm CLR
20:56 14.7 °C 9.3 °C 1013.8 hPa Calm     70% 0.0 mm OVC
21:01 14.4 °C 9.2 °C 1013.8 hPa Calm     71% 0.0 mm OVC
21:06 14.2 °C 9.2 °C 1013.8 hPa SW 7.4 km/h 7.4 km/h 72% 0.0 mm OVC
21:11 13.9 °C 9.2 °C 1013.8 hPa WSW 7.4 km/h 7.4 km/h 73% 0.0 mm OVC
21:16 13.8 °C 9.1 °C 1013.8 hPa WSW 5.6 km/h 5.6 km/h 73% 0.0 mm OVC
21:21 13.7 °C 9.1 °C 1013.8 hPa Calm     74% 0.0 mm CLR
21:26 13.4 °C 9.1 °C 1013.8 hPa West 1.9 km/h 1.9 km/h 75% 0.0 mm CLR
21:31 13.3 °C 8.9 °C 1014.1 hPa West 9.3 km/h 9.3 km/h 75% 0.0 mm CLR
21:36 13.2 °C 8.9 °C 1014.1 hPa WNW 3.7 km/h 3.7 km/h 75% 0.0 mm CLR
21:41 13.1 °C 8.8 °C 1014.1 hPa WNW 7.4 km/h 7.4 km/h 75% 0.0 mm CLR
21:43 13.1 °C 8.8 °C 1014.1 hPa WSW 3.7 km/h 3.7 km/h 75% 0.0 mm CLR
21:48 13.0 °C 8.9 °C 1014.1 hPa WSW 7.1 km/h 7.1 km/h 76% 0.0 mm CLR
21:53 12.9 °C 8.8 °C 1014.1 hPa WNW 5.6 km/h 5.6 km/h 76% 0.0 mm CLR
21:58 12.8 °C 8.7 °C 1014.1 hPa WSW 3.7 km/h 3.7 km/h 76% 0.0 mm CLR
22:03 12.8 °C 8.7 °C 1014.1 hPa West 5.6 km/h 5.6 km/h 76% 0.0 mm CLR
22:08 12.7 °C 8.7 °C 1014.1 hPa West 3.5 km/h 3.5 km/h 77% 0.0 mm CLR
22:13 12.6 °C 8.6 °C 1014.1 hPa WSW 5.6 km/h 5.6 km/h 77% 0.0 mm CLR
22:18 12.5 °C 8.8 °C 1014.1 hPa WSW 3.7 km/h 3.7 km/h 78% 0.0 mm CLR
22:23 12.4 °C 8.7 °C 1014.1 hPa West 7.4 km/h 7.4 km/h 78% 0.0 mm CLR
22:28 12.4 °C 8.7 °C 1014.1 hPa WSW 3.7 km/h 3.7 km/h 78% 0.0 mm CLR
22:33 12.3 °C 8.6 °C 1014.1 hPa SW 3.7 km/h 3.7 km/h 78% 0.0 mm CLR
22:38 12.3 °C 8.7 °C 1014.1 hPa West 5.6 km/h 5.6 km/h 79% 0.0 mm CLR
22:43 12.2 °C 8.6 °C 1014.1 hPa SW 5.6 km/h 5.6 km/h 79% 0.0 mm CLR
22:48 12.1 °C 8.7 °C 1014.1 hPa WSW 5.3 km/h 5.3 km/h 80% 0.0 mm CLR
22:53 11.9 °C 8.6 °C 1014.1 hPa WNW 5.6 km/h 5.6 km/h 80% 0.0 mm CLR
Wetterstation-Johanngeorgenstadt
bereitgestellt durch Wetterstation-Johanngeorgenstadt und Weather Underground - 3 mb
Besucherstatistik
Besucher gesamt: 693.581
Besucher heute: 962
Besucher gestern: 574
Besucher pro Tag: 850,70
gerade online: 19
max. online: 156
Seitenaufrufe diese Seite: 2.195
counter Statistiken